Time;durP1;ratioP1;P1;durP2;ratioP2;P2;SDS_P1;SDS_P2;PMS_P1;PMS_P2;Temp;Humidity;BMP_temperature;BMP_pressure;BME280_temperature;BME280_humidity;BME280_pressure;Samples;Min_cycle;Max_cycle;Signal;HPM_P1;HPM_P2
2023/02/08 00:01:30;;;;;;;;;;;;;;;-2.68;51.98;102543.38;6144828;23;19923;-79
2023/02/08 00:03:56;;;;;;;;;;;;;;;-2.63;52.23;102544.69;6144815;23;19911;-80
2023/02/08 00:06:22;;;;;;;;;;;;;;;-2.66;52.08;102549.53;6144639;23;20444;-78
2023/02/08 00:08:48;;;;;;;;;;;;;;;-2.63;52.31;102544.69;6196210;23;19994;-81
2023/02/08 00:11:14;;;;;;;;;;;;;;;-2.57;51.99;102543.59;6144759;23;19927;-79
2023/02/08 00:13:40;;;;;;;;;;;;;;;-2.52;52.08;102532.91;6145306;23;19912;-80
2023/02/08 00:16:06;;;;;;;;;;;;;;;-2.55;51.74;102536.09;6119749;23;19918;-78
2023/02/08 00:18:32;;;;;;;;;;;;;;;-2.60;51.69;102537.31;6143605;23;20350;-80
2023/02/08 00:20:58;;;;;;;;;;;;;;;-2.68;51.45;102538.28;6194595;23;19912;-80
2023/02/08 00:23:25;;;;;;;;;;;;;;;-2.70;51.87;102547.47;6169010;23;20385;-79
2023/02/08 00:25:50;;;;;;;;;;;;;;;-2.73;51.93;102548.97;6167107;23;19939;-80
2023/02/08 00:28:17;;;;;;;;;;;;;;;-2.74;51.72;102549.72;6167471;23;19912;-77
2023/02/08 00:30:43;;;;;;;;;;;;;;;-2.79;51.60;102540.81;6168481;23;19919;-78
2023/02/08 00:33:11;;;;;;;;;;;;;;;-2.85;51.70;102544.44;6144576;23;20358;-79
2023/02/08 00:35:37;;;;;;;;;;;;;;;-2.92;51.54;102549.00;6143942;23;19911;-78
2023/02/08 00:38:03;;;;;;;;;;;;;;;-2.96;51.81;102546.00;6169192;23;19915;-78
2023/02/08 00:40:31;;;;;;;;;;;;;;;-3.10;51.82;102552.44;6194039;23;19955;-78
2023/02/08 00:42:58;;;;;;;;;;;;;;;-3.10;51.92;102548.22;6170059;23;19926;-80
2023/02/08 00:45:24;;;;;;;;;;;;;;;-3.14;51.69;102535.97;6196082;23;19956;-79
2023/02/08 00:47:52;;;;;;;;;;;;;;;-3.17;51.74;102538.22;6167925;23;19912;-78
2023/02/08 00:50:20;;;;;;;;;;;;;;;-3.25;52.02;102529.00;6169098;23;19959;-79
2023/02/08 00:52:47;;;;;;;;;;;;;;;-3.23;52.07;102535.16;6143118;23;19959;-78
2023/02/08 00:55:13;;;;;;;;;;;;;;;-3.24;51.90;102523.16;6193636;23;19919;-79
2023/02/08 00:57:48;;;;;;;;;;;;;;;-3.23;51.83;102522.41;6192948;23;20314;-78
2023/02/08 01:00:14;;;;;;;;;;;;;;;-3.22;51.86;102526.75;6167750;23;19927;-79
2023/02/08 01:02:41;;;;;;;;;;;;;;;-3.16;52.08;102519.63;6167386;23;19986;-77
2023/02/08 01:05:10;;;;;;;;;;;;;;;-3.16;51.94;102514.53;6193814;23;19923;-79
2023/02/08 01:07:37;;;;;;;;;;;;;;;-3.21;52.08;102511.59;6143406;23;20034;-78
2023/02/08 01:10:04;;;;;;;;;;;;;;;-3.19;52.01;102521.91;6145682;23;19931;-79
2023/02/08 01:12:30;;;;;;;;;;;;;;;-3.12;52.07;102514.06;6144539;23;19958;-80
2023/02/08 01:14:57;;;;;;;;;;;;;;;-3.13;52.04;102522.47;6168284;23;20385;-76
2023/02/08 01:17:23;;;;;;;;;;;;;;;-3.19;52.07;102521.91;6146297;23;19912;-79
2023/02/08 01:19:49;;;;;;;;;;;;;;;-3.23;52.13;102530.03;6169322;23;19916;-80
2023/02/08 01:22:16;;;;;;;;;;;;;;;-3.23;52.06;102524.94;6144946;23;19912;-78
2023/02/08 01:24:42;;;;;;;;;;;;;;;-3.22;52.08;102531.84;6142440;23;19942;-82
2023/02/08 01:27:08;;;;;;;;;;;;;;;-3.23;52.02;102530.94;6143787;23;19916;-79
2023/02/08 01:29:34;;;;;;;;;;;;;;;-3.18;52.44;102527.16;6142633;23;19923;-79
2023/02/08 01:32:01;;;;;;;;;;;;;;;-3.21;52.42;102531.09;6167900;23;19912;-79
2023/02/08 01:34:28;;;;;;;;;;;;;;;-3.22;52.31;102536.94;6170659;23;19931;-78
2023/02/08 01:36:54;;;;;;;;;;;;;;;-3.28;52.03;102526.19;6123409;23;19935;-78
2023/02/08 01:39:20;;;;;;;;;;;;;;;-3.44;51.91;102534.06;6169682;23;20202;-81
2023/02/08 01:41:46;;;;;;;;;;;;;;;-3.47;52.34;102534.69;6196417;23;19953;-77
2023/02/08 01:44:13;;;;;;;;;;;;;;;-3.50;52.42;102525.09;6167103;23;19967;-77
2023/02/08 01:46:50;;;;;;;;;;;;;;;-3.48;52.86;102528.69;6166985;23;19916;-79
2023/02/08 01:49:35;;;;;;;;;;;;;;;-3.44;52.78;102519.69;6194833;23;19912;-80
2023/02/08 01:52:01;;;;;;;;;;;;;;;-3.45;52.22;102527.19;6119499;23;20266;-82
2023/02/08 01:54:29;;;;;;;;;;;;;;;-3.48;52.40;102513.41;6143661;23;19919;-78
2023/02/08 01:56:55;;;;;;;;;;;;;;;-3.42;52.54;102520.69;6194517;23;19916;-81
2023/02/08 01:59:40;;;;;;;;;;;;;;;-3.38;52.11;102530.41;6168536;23;19963;-78
2023/02/08 02:02:11;;;;;;;;;;;;;;;-3.31;52.40;102523.34;6146259;23;19915;-79
2023/02/08 02:04:37;;;;;;;;;;;;;;;-3.29;52.45;102530.38;6144299;23;19990;-79
2023/02/08 02:07:05;;;;;;;;;;;;;;;-3.32;52.64;102530.13;6144132;23;19916;-78
2023/02/08 02:09:41;;;;;;;;;;;;;;;-3.25;52.40;102529.88;6169177;23;19912;-77
2023/02/08 02:12:08;;;;;;;;;;;;;;;-3.22;52.54;102524.19;6166423;23;19912;-79
2023/02/08 02:14:37;;;;;;;;;;;;;;;-3.21;52.13;102518.34;6142243;23;19920;-80
2023/02/08 02:17:04;;;;;;;;;;;;;;;-3.20;52.37;102515.03;6192201;23;19951;-78
2023/02/08 02:19:30;;;;;;;;;;;;;;;-3.13;52.67;102519.03;6142319;23;19919;-79
2023/02/08 02:22:12;;;;;;;;;;;;;;;-3.10;52.71;102514.22;6166628;23;19912;-80
2023/02/08 02:24:41;;;;;;;;;;;;;;;-3.18;52.22;102516.97;6142397;23;19919;-81
2023/02/08 02:27:23;;;;;;;;;;;;;;;-3.21;52.64;102520.91;6141579;23;19915;-80
2023/02/08 02:30:16;;;;;;;;;;;;;;;-3.16;52.31;102514.53;6141659;23;20349;-79
2023/02/08 02:33:04;;;;;;;;;;;;;;;-3.11;52.61;102509.88;6142780;23;19992;-78
2023/02/08 02:35:58;;;;;;;;;;;;;;;-3.12;52.28;102514.06;6193606;23;19950;-78
2023/02/08 02:38:57;;;;;;;;;;;;;;;-3.08;52.07;102521.22;6109637;23;19912;-78
2023/02/08 02:44:40;;;;;;;;;;;;;;;-3.21;51.91;102524.31;6197660;23;20079;-81
2023/02/08 02:47:16;;;;;;;;;;;;;;;-3.29;52.33;102529.47;6147724;23;20085;-77
2023/02/08 02:50:06;;;;;;;;;;;;;;;-3.36;52.29;102533.13;6147946;23;20031;-79
2023/02/08 02:52:47;;;;;;;;;;;;;;;-3.36;52.55;102534.00;6140292;23;19896;-79
2023/02/08 02:55:18;;;;;;;;;;;;;;;-3.37;52.02;102528.78;6173918;23;19960;-78
2023/02/08 02:57:45;;;;;;;;;;;;;;;-3.38;52.18;102522.78;6175154;23;19932;-80
2023/02/08 03:00:13;;;;;;;;;;;;;;;-3.40;52.31;102526.84;6205498;23;19936;-78
2023/02/08 03:02:39;;;;;;;;;;;;;;;-3.48;52.88;102523.59;6208039;23;19912;-80
2023/02/08 03:05:10;;;;;;;;;;;;;;;-3.42;52.47;102528.34;6157441;23;19899;-80
2023/02/08 03:07:44;;;;;;;;;;;;;;;-3.48;52.50;102530.34;6135198;23;19920;-82
2023/02/08 03:10:13;;;;;;;;;;;;;;;-3.48;52.56;102528.69;6209286;23;19966;-83
2023/02/08 03:13:00;;;;;;;;;;;;;;;-3.42;52.66;102527.47;6175292;23;19912;-81
2023/02/08 03:15:44;;;;;;;;;;;;;;;-3.35;52.67;102525.63;6168301;23;19912;-80
2023/02/08 03:18:31;;;;;;;;;;;;;;;-3.27;52.60;102530.53;6168750;23;19919;-81
2023/02/08 03:21:11;;;;;;;;;;;;;;;-3.22;52.73;102531.84;6144734;23;19936;-79
2023/02/08 03:24:00;;;;;;;;;;;;;;;-3.27;52.29;102533.06;6119433;23;19915;-82
2023/02/08 03:26:31;;;;;;;;;;;;;;;-3.28;52.61;102526.19;6167365;23;20202;-83
2023/02/08 03:29:17;;;;;;;;;;;;;;;-3.34;52.18;102529.94;6142823;23;19956;-81
2023/02/08 03:31:46;;;;;;;;;;;;;;;-3.44;52.28;102524.78;6167446;23;19912;-80
2023/02/08 03:34:19;;;;;;;;;;;;;;;-3.46;52.87;102536.47;6169602;23;19971;-79
2023/02/08 03:36:45;;;;;;;;;;;;;;;-3.39;52.78;102522.66;6171100;23;19916;-80
2023/02/08 03:39:20;;;;;;;;;;;;;;;-3.50;51.88;102519.13;6146899;23;19912;-79
2023/02/08 03:41:53;;;;;;;;;;;;;;;-3.60;52.41;102521.56;6173011;23;20330;-78
2023/02/08 03:44:34;;;;;;;;;;;;;;;-3.64;52.76;102523.81;6147096;23;20549;-77
2023/02/08 03:47:13;;;;;;;;;;;;;;;-3.59;52.83;102526.81;6170119;23;19912;-80
2023/02/08 03:49:42;;;;;;;;;;;;;;;-3.59;52.64;102521.72;6122929;23;19923;-80
2023/02/08 03:52:28;;;;;;;;;;;;;;;-3.64;52.74;102515.31;6173102;23;19912;-82
2023/02/08 03:55:01;;;;;;;;;;;;;;;-3.62;52.88;102511.25;6170050;23;19912;-79
2023/02/08 03:57:37;;;;;;;;;;;;;;;-3.62;52.83;102503.63;6168966;23;19919;-80
2023/02/08 04:00:05;;;;;;;;;;;;;;;-3.59;52.75;102492.81;6149650;23;19939;-82
2023/02/08 04:02:45;;;;;;;;;;;;;;;-3.52;52.62;102498.59;6195700;23;19931;-80
2023/02/08 04:05:11;;;;;;;;;;;;;;;-3.43;53.08;102500.22;6144400;23;19912;-80
2023/02/08 04:07:36;;;;;;;;;;;;;;;-3.35;52.79;102497.59;6143601;23;19912;-83
2023/02/08 04:10:05;;;;;;;;;;;;;;;-3.27;52.32;102493.19;6168596;23;19923;-80
2023/02/08 04:12:37;;;;;;;;;;;;;;;-3.23;52.22;102489.28;6170969;23;19919;-81
2023/02/08 04:15:03;;;;;;;;;;;;;;;-3.20;52.51;102490.44;6168842;23;19912;-78
2023/02/08 04:17:28;;;;;;;;;;;;;;;-3.18;52.38;102488.03;6168058;23;19919;-81
2023/02/08 04:19:55;;;;;;;;;;;;;;;-3.20;52.31;102494.66;6194148;23;19919;-79
2023/02/08 04:22:20;;;;;;;;;;;;;;;-3.27;52.20;102487.22;6195857;23;19912;-79
2023/02/08 04:24:46;;;;;;;;;;;;;;;-3.37;52.66;102491.47;6143983;23;19947;-82
2023/02/08 04:27:12;;;;;;;;;;;;;;;-3.43;52.44;102475.66;6168549;23;19939;-82
2023/02/08 04:29:46;;;;;;;;;;;;;;;-3.45;52.47;102492.44;6144310;23;19947;-81
2023/02/08 04:32:17;;;;;;;;;;;;;;;-3.49;52.47;102491.25;6169626;23;20339;-83
2023/02/08 04:34:43;;;;;;;;;;;;;;;-3.48;52.67;102490.50;6168806;23;19912;-82
2023/02/08 04:37:10;;;;;;;;;;;;;;;-3.54;52.87;102481.41;6119965;23;19916;-80
2023/02/08 04:39:36;;;;;;;;;;;;;;;-3.56;53.23;102480.38;6146444;23;20306;-81
2023/02/08 04:42:05;;;;;;;;;;;;;;;-3.55;52.77;102475.44;6146698;23;19991;-83
2023/02/08 04:44:40;;;;;;;;;;;;;;;-3.58;52.42;102471.69;6172689;23;19923;-81
2023/02/08 04:47:10;;;;;;;;;;;;;;;-3.69;52.86;102474.16;6144445;23;20339;-79
2023/02/08 04:49:44;;;;;;;;;;;;;;;-3.75;53.11;102463.41;6171564;23;19916;-81
2023/02/08 04:52:27;;;;;;;;;;;;;;;-3.83;52.95;102460.16;6146573;23;19912;-79
2023/02/08 04:55:09;;;;;;;;;;;;;;;-3.85;53.16;102454.03;6197989;23;19912;-83
2023/02/08 04:57:39;;;;;;;;;;;;;;;-3.86;53.20;102461.56;6134137;23;19916;-81
2023/02/08 05:00:05;;;;;;;;;;;;;;;-3.85;53.60;102458.22;6083690;23;19913;-80
2023/02/08 05:02:41;;;;;;;;;;;;;;;-3.90;53.06;102449.28;6109201;23;19920;-79
2023/02/08 05:05:16;;;;;;;;;;;;;;;-3.88;53.37;102457.97;6133284;23;19913;-82
2023/02/08 05:07:42;;;;;;;;;;;;;;;-3.91;53.06;102457.69;6130700;23;19919;-80
2023/02/08 05:10:08;;;;;;;;;;;;;;;-4.04;53.21;102453.97;6084278;23;19916;-80
2023/02/08 05:12:43;;;;;;;;;;;;;;;-4.07;53.34;102451.16;6085881;23;19951;-81
2023/02/08 05:15:15;;;;;;;;;;;;;;;-4.06;53.46;102452.94;6109295;23;20343;-81
2023/02/08 05:17:55;;;;;;;;;;;;;;;-4.07;53.57;102445.19;6112233;23;19916;-80
2023/02/08 05:20:21;;;;;;;;;;;;;;;-4.08;53.69;102449.34;6133634;23;19912;-81
2023/02/08 05:22:58;;;;;;;;;;;;;;;-4.01;53.81;102446.63;6183804;23;19943;-82
2023/02/08 05:26:05;;;;;;;;;;;;;;;-3.97;54.22;102445.28;6146586;23;19912;-81
2023/02/08 05:28:34;;;;;;;;;;;;;;;-4.58;53.80;102339.66;6171359;23;19916;-80
2023/02/08 05:31:10;;;;;;;;;;;;;;;-3.92;53.80;102445.72;6171088;23;20360;-80
2023/02/08 05:33:41;;;;;;;;;;;;;;;-3.89;54.04;102436.69;6174847;23;19912;-86
2023/02/08 05:36:16;;;;;;;;;;;;;;;-3.87;54.12;102439.41;6177254;23;19952;-84
2023/02/08 05:38:42;;;;;;;;;;;;;;;-3.92;54.04;102441.50;6197271;23;19912;-85
2023/02/08 05:41:09;;;;;;;;;;;;;;;-3.94;54.09;102443.00;6115974;23;19912;-82
2023/02/08 05:43:34;;;;;;;;;;;;;;;-3.98;54.27;102446.91;6165309;23;19942;-85
2023/02/08 05:46:01;;;;;;;;;;;;;;;-3.98;54.03;102446.91;6142857;23;19932;-83
2023/02/08 05:48:27;;;;;;;;;;;;;;;-3.95;54.46;102449.75;6143174;23;19916;-79
2023/02/08 05:50:52;;;;;;;;;;;;;;;-3.92;54.70;102451.69;6168672;23;19999;-81
2023/02/08 05:53:18;;;;;;;;;;;;;;;-3.92;54.12;102449.13;6122233;23;19931;-82
2023/02/08 05:55:44;;;;;;;;;;;;;;;-3.96;54.48;102450.50;6143679;23;19919;-80
2023/02/08 05:58:11;;;;;;;;;;;;;;;-3.93;54.78;102447.34;6170499;23;19923;-81
2023/02/08 06:00:37;;;;;;;;;;;;;;;-3.91;54.96;102442.41;6145637;23;19916;-79
2023/02/08 06:03:03;;;;;;;;;;;;;;;-3.88;54.78;102443.56;6166091;23;20133;-83
2023/02/08 06:05:29;;;;;;;;;;;;;;;-3.85;54.83;102442.94;6190447;23;19912;-81
2023/02/08 06:07:54;;;;;;;;;;;;;;;-3.82;54.37;102438.16;6168779;23;19960;-79
2023/02/08 06:10:20;;;;;;;;;;;;;;;-3.80;54.84;102435.00;6163439;23;19931;-82
2023/02/08 06:12:51;;;;;;;;;;;;;;;-3.76;55.09;102435.28;6144169;23;19992;-82
2023/02/08 06:15:18;;;;;;;;;;;;;;;-3.68;55.44;102431.78;6123406;23;19951;-81
2023/02/08 06:17:43;;;;;;;;;;;;;;;-3.71;54.98;102426.41;6158297;23;19912;-84
2023/02/08 06:20:10;;;;;;;;;;;;;;;-3.71;55.26;102427.31;6157328;23;19919;-79
2023/02/08 06:22:37;;;;;;;;;;;;;;;-3.70;55.23;102421.47;6163737;23;19923;-80
2023/02/08 06:25:03;;;;;;;;;;;;;;;-3.74;55.32;102432.13;6185876;23;19919;-80
2023/02/08 06:27:29;;;;;;;;;;;;;;;-3.74;55.07;102413.38;6132090;23;19912;-82
2023/02/08 06:29:54;;;;;;;;;;;;;;;-3.74;55.33;102426.13;6157337;23;20063;-83
2023/02/08 06:32:20;;;;;;;;;;;;;;;-3.73;54.70;102413.56;6132244;23;19934;-78
2023/02/08 06:34:49;;;;;;;;;;;;;;;-3.74;55.09;102419.41;6156961;23;19912;-81
2023/02/08 06:37:15;;;;;;;;;;;;;;;-3.72;55.28;102415.34;6132378;23;20492;-82
2023/02/08 06:39:41;;;;;;;;;;;;;;;-3.65;55.53;102412.59;6156954;23;19935;-81
2023/02/08 06:42:07;;;;;;;;;;;;;;;-3.60;55.14;102418.09;6133804;23;20022;-81
2023/02/08 06:44:38;;;;;;;;;;;;;;;-3.58;55.33;102408.03;6136951;23;19912;-82
2023/02/08 06:47:04;;;;;;;;;;;;;;;-3.64;55.23;102405.84;6188988;23;19912;-85
2023/02/08 06:49:30;;;;;;;;;;;;;;;-3.71;55.19;102417.13;6136969;23;20218;-80
2023/02/08 06:51:56;;;;;;;;;;;;;;;-3.70;55.16;102411.28;6186833;23;20218;-79
2023/02/08 06:54:22;;;;;;;;;;;;;;;-3.74;55.41;102409.22;6159329;23;19915;-81
2023/02/08 06:56:48;;;;;;;;;;;;;;;-3.73;55.68;102411.00;6132569;23;19933;-86
2023/02/08 06:59:14;;;;;;;;;;;;;;;-3.73;55.72;102410.09;6186454;23;19943;-85
2023/02/08 07:01:40;;;;;;;;;;;;;;;-3.70;55.68;102402.75;6135475;23;19916;-86
2023/02/08 07:04:06;;;;;;;;;;;;;;;-3.66;55.80;102415.91;6134029;23;19916;-85
2023/02/08 07:06:39;;;;;;;;;;;;;;;-3.68;55.81;102414.88;6136094;23;19912;-81
2023/02/08 07:09:11;;;;;;;;;;;;;;;-3.66;55.86;102407.34;6136133;23;19916;-81
2023/02/08 07:11:36;;;;;;;;;;;;;;;-3.65;55.66;102402.44;6134078;23;19912;-84
2023/02/08 07:14:14;;;;;;;;;;;;;;;-3.65;55.43;102396.41;6132947;23;20347;-81
2023/02/08 07:16:40;;;;;;;;;;;;;;;-3.63;55.68;102405.97;6132017;23;19918;-83
2023/02/08 07:19:06;;;;;;;;;;;;;;;-3.53;55.83;102406.81;6182903;23;19920;-85
2023/02/08 07:21:32;;;;;;;;;;;;;;;-3.46;56.13;102401.53;6154960;23;20235;-82
2023/02/08 07:23:57;;;;;;;;;;;;;;;-3.37;55.99;102398.91;6183583;23;19919;-84
2023/02/08 07:26:24;;;;;;;;;;;;;;;-3.31;55.70;102390.91;6156827;23;20322;-82
2023/02/08 07:28:52;;;;;;;;;;;;;;;-3.26;55.74;102397.31;6155414;23;19928;-81
2023/02/08 07:31:18;;;;;;;;;;;;;;;-3.22;55.59;102405.34;6156040;23;20259;-82
2023/02/08 07:33:44;;;;;;;;;;;;;;;-3.19;55.63;102399.63;6107046;23;19912;-81
2023/02/08 07:36:10;;;;;;;;;;;;;;;-3.18;55.47;102397.22;6182492;23;20466;-81
2023/02/08 07:38:37;;;;;;;;;;;;;;;-3.13;55.49;102391.66;6155122;23;19916;-81
2023/02/08 07:41:07;;;;;;;;;;;;;;;-3.10;55.48;102400.44;6131248;23;20343;-81
2023/02/08 07:43:34;;;;;;;;;;;;;;;-3.02;55.44;102396.03;6155492;23;19912;-80
2023/02/08 07:46:09;;;;;;;;;;;;;;;-3.03;55.25;102395.16;6131646;23;19912;-83
2023/02/08 07:48:38;;;;;;;;;;;;;;;-3.00;55.31;102396.19;6155761;23;19935;-83
2023/02/08 07:51:07;;;;;;;;;;;;;;;-3.04;55.63;102383.16;6134493;23;20001;-82
2023/02/08 07:53:33;;;;;;;;;;;;;;;-2.99;55.50;102385.22;6134034;23;19966;-83
2023/02/08 07:56:09;;;;;;;;;;;;;;;-2.99;55.66;102382.69;6133721;23;19912;-85
2023/02/08 07:58:35;;;;;;;;;;;;;;;-2.90;55.69;102380.91;6131454;23;19951;-83
2023/02/08 08:01:03;;;;;;;;;;;;;;;-2.92;55.13;102377.34;6155018;23;19923;-81
2023/02/08 08:03:29;;;;;;;;;;;;;;;-2.93;55.21;102375.56;6129929;23;19912;-80
2023/02/08 08:05:55;;;;;;;;;;;;;;;-2.86;55.67;102380.44;6139428;23;19916;-84
2023/02/08 08:08:33;;;;;;;;;;;;;;;-2.77;54.74;102371.03;6157229;23;19922;-85
2023/02/08 08:10:59;;;;;;;;;;;;;;;-2.76;55.25;102374.47;6186689;23;19912;-87
2023/02/08 08:13:25;;;;;;;;;;;;;;;-2.74;55.11;102370.41;6170674;23;19912;-86
2023/02/08 08:15:51;;;;;;;;;;;;;;;-2.68;55.10;102370.94;6152130;23;19908;-82
2023/02/08 08:18:17;;;;;;;;;;;;;;;-2.70;55.24;102372.47;6174747;23;19912;-85
2023/02/08 08:20:43;;;;;;;;;;;;;;;-2.65;55.44;102371.22;6136781;23;19919;-86
2023/02/08 08:23:31;;;;;;;;;;;;;;;-2.55;55.14;102366.88;6142370;23;19912;-84
2023/02/08 08:25:58;;;;;;;;;;;;;;;-2.47;55.38;102366.75;6184547;23;19912;-82
2023/02/08 08:28:27;;;;;;;;;;;;;;;-2.43;55.31;102367.94;6188472;23;19916;-84
2023/02/08 08:30:53;;;;;;;;;;;;;;;-2.40;54.92;102359.66;6163991;23;19912;-82
2023/02/08 08:33:21;;;;;;;;;;;;;;;-2.34;55.17;102362.72;6165556;23;19916;-81
2023/02/08 08:35:47;;;;;;;;;;;;;;;-2.16;55.16;102348.97;6116073;23;19960;-84
2023/02/08 08:38:13;;;;;;;;;;;;;;;-2.02;54.90;102341.53;6113625;23;19912;-82
2023/02/08 08:40:39;;;;;;;;;;;;;;;-1.95;55.12;102345.50;6160032;23;19919;-83
2023/02/08 08:43:05;;;;;;;;;;;;;;;-1.91;54.55;102348.44;6138113;23;20253;-84
2023/02/08 08:45:31;;;;;;;;;;;;;;;-1.86;54.70;102343.72;6135727;23;19922;-86
2023/02/08 08:47:59;;;;;;;;;;;;;;;-1.79;54.60;102345.09;6110498;23;19912;-84
2023/02/08 08:50:25;;;;;;;;;;;;;;;-1.69;54.90;102338.31;6135797;23;19923;-82
2023/02/08 08:52:51;;;;;;;;;;;;;;;-1.71;54.73;102341.53;6187495;23;19912;-84
2023/02/08 08:55:17;;;;;;;;;;;;;;;-1.84;54.40;102345.63;6186791;23;20341;-83
2023/02/08 08:57:42;;;;;;;;;;;;;;;-1.90;54.01;102345.13;6188111;23;19912;-82
2023/02/08 09:00:09;;;;;;;;;;;;;;;-1.90;54.60;102337.47;6139231;23;20431;-83
2023/02/08 09:02:35;;;;;;;;;;;;;;;-1.90;54.44;102342.59;6164632;23;19919;-82
2023/02/08 09:05:03;;;;;;;;;;;;;;;-1.92;54.54;102331.34;6161614;23;19912;-84
2023/02/08 09:07:29;;;;;;;;;;;;;;;-1.91;54.05;102325.47;6154614;23;19912;-83
2023/02/08 09:09:55;;;;;;;;;;;;;;;-1.94;54.66;102332.88;6159053;23;19922;-83
2023/02/08 09:12:21;;;;;;;;;;;;;;;-1.91;54.49;102329.66;6134949;23;20326;-84
2023/02/08 09:14:50;;;;;;;;;;;;;;;-1.95;54.41;102326.00;6189118;23;19922;-83
2023/02/08 09:17:21;;;;;;;;;;;;;;;-1.98;54.71;102326.59;6159782;23;19918;-81
2023/02/08 09:19:49;;;;;;;;;;;;;;;-2.03;54.99;102317.69;6132917;23;20250;-82
2023/02/08 09:22:15;;;;;;;;;;;;;;;-2.03;54.82;102315.16;6132283;23;19992;-82
2023/02/08 09:24:40;;;;;;;;;;;;;;;-2.02;54.67;102305.81;6135648;23;19918;-84
2023/02/08 09:27:08;;;;;;;;;;;;;;;-1.94;54.80;102302.25;6159847;23;20006;-82
2023/02/08 09:29:52;;;;;;;;;;;;;;;-1.86;54.70;102297.75;6113902;23;19923;-83
2023/02/08 09:32:33;;;;;;;;;;;;;;;-1.82;54.80;102297.25;6143558;23;20358;-82
2023/02/08 09:35:02;;;;;;;;;;;;;;;-1.81;54.43;102296.50;6166592;23;20339;-82
2023/02/08 09:37:28;;;;;;;;;;;;;;;-1.76;54.52;102295.19;6117985;23;19912;-82
2023/02/08 09:40:15;;;;;;;;;;;;;;;-1.68;54.70;102291.59;6141907;23;19916;-82
2023/02/08 09:43:11;;;;;;;;;;;;;;;-1.54;54.56;102291.81;6167301;23;19927;-82
2023/02/08 09:45:56;;;;;;;;;;;;;;;-1.54;53.92;102299.47;6142024;23;19912;-83
2023/02/08 09:48:54;;;;;;;;;;;;;;;-1.47;54.65;102277.88;6166908;23;19924;-85
2023/02/08 09:55:00;;;;;;;;;;;;;;;-1.11;54.38;102269.69;6051561;23;20336;-84
2023/02/08 09:57:33;;;;;;;;;;;;;;;-1.03;54.64;102271.91;6027559;23;19913;-85
2023/02/08 10:00:13;;;;;;;;;;;;;;;-1.03;53.58;102269.38;6054723;23;19913;-82
2023/02/08 10:03:03;;;;;;;;;;;;;;;-1.03;54.25;102265.16;6155342;23;19933;-83
2023/02/08 10:05:38;;;;;;;;;;;;;;;-0.93;53.98;102259.09;6152963;23;19924;-83
2023/02/08 10:08:08;;;;;;;;;;;;;;;-0.99;53.67;102249.25;6140476;23;19963;-83
2023/02/08 10:10:47;;;;;;;;;;;;;;;-0.98;53.92;102258.72;6142216;23;19912;-83
2023/02/08 10:13:20;;;;;;;;;;;;;;;-0.92;54.57;102250.66;6166956;23;19943;-82
2023/02/08 10:15:59;;;;;;;;;;;;;;;-1.00;53.90;102252.63;6142660;23;19956;-85
2023/02/08 10:18:35;;;;;;;;;;;;;;;-1.09;53.57;102268.09;6170842;23;19916;-82
2023/02/08 10:21:01;;;;;;;;;;;;;;;-1.03;53.96;102261.69;6145736;23;19950;-83
2023/02/08 10:23:46;;;;;;;;;;;;;;;-1.05;53.46;102259.03;6143622;23;19984;-82
2023/02/08 10:26:45;;;;;;;;;;;;;;;-1.10;54.51;102256.09;6162888;23;20338;-84
2023/02/08 10:29:14;;;;;;;;;;;;;;;-1.05;53.37;102253.94;6145225;23;19916;-84
2023/02/08 10:31:48;;;;;;;;;;;;;;;-1.00;53.72;102254.28;6145264;23;19912;-79
2023/02/08 10:34:33;;;;;;;;;;;;;;;-0.93;54.27;102242.06;6169055;23;19912;-85
2023/02/08 10:37:21;;;;;;;;;;;;;;;-0.81;54.14;102231.03;6143984;23;20368;-84
2023/02/08 10:40:41;;;;;;;;;;;;;;;-0.79;53.62;102219.25;6149066;23;19912;-84
2023/02/08 10:43:34;;;;;;;;;;;;;;;-0.72;54.36;102213.81;6145790;23;19963;-82
2023/02/08 10:46:04;;;;;;;;;;;;;;;-0.59;53.65;102210.50;6170298;23;19958;-82
2023/02/08 10:48:43;;;;;;;;;;;;;;;-0.48;53.92;102199.44;6194456;23;19915;-84
2023/02/08 10:51:25;;;;;;;;;;;;;;;-0.26;54.07;102203.56;6168389;23;20274;-82
2023/02/08 10:53:52;;;;;;;;;;;;;;;-0.01;53.32;102193.44;6144509;23;19959;-83
2023/02/08 10:56:30;;;;;;;;;;;;;;;0.11;53.22;102187.44;6175036;23;19895;-84
2023/02/08 10:59:16;;;;;;;;;;;;;;;0.05;53.54;102195.56;6160711;23;19959;-82
2023/02/08 11:01:44;;;;;;;;;;;;;;;0.11;53.02;102192.56;6152315;23;19967;-84
2023/02/08 11:04:12;;;;;;;;;;;;;;;0.13;52.92;102186.75;6155154;23;19900;-83
2023/02/08 11:06:46;;;;;;;;;;;;;;;0.14;52.49;102182.53;6156662;23;19920;-84
2023/02/08 11:09:38;;;;;;;;;;;;;;;0.22;53.51;102183.97;6178637;23;19921;-85
2023/02/08 11:12:05;;;;;;;;;;;;;;;0.31;53.26;102185.41;6046026;23;19897;-81
2023/02/08 11:14:39;;;;;;;;;;;;;;;0.52;53.82;102181.81;6125709;23;19928;-80
2023/02/08 11:17:32;;;;;;;;;;;;;;;0.60;52.96;102175.53;6126950;23;19912;-81
2023/02/08 11:20:19;;;;;;;;;;;;;;;0.73;52.76;102176.41;6170046;23;20016;-80
2023/02/08 11:22:48;;;;;;;;;;;;;;;0.98;52.51;102188.34;6125027;23;19932;-81
2023/02/08 11:25:31;;;;;;;;;;;;;;;0.91;52.52;102179.31;6152222;23;19912;-80
2023/02/08 11:28:26;;;;;;;;;;;;;;;0.77;51.85;102182.63;6172864;23;19923;-82
2023/02/08 11:31:06;;;;;;;;;;;;;;;0.51;52.09;102186.81;6094253;23;19913;-84
2023/02/08 11:34:09;;;;;;;;;;;;;;;0.38;51.87;102192.72;6142529;23;19931;-84
2023/02/08 11:36:51;;;;;;;;;;;;;;;0.28;51.91;102184.41;6172725;23;19897;-83
2023/02/08 11:39:23;;;;;;;;;;;;;;;0.19;52.26;102186.31;6123970;23;19932;-85
2023/02/08 11:42:05;;;;;;;;;;;;;;;-0.08;52.38;102134.03;6144439;23;20383;-84
2023/02/08 11:44:42;;;;;;;;;;;;;;;0.25;52.02;102175.59;6143520;23;19916;-86
2023/02/08 11:47:14;;;;;;;;;;;;;;;0.37;52.79;102180.72;6103858;23;19900;-83
2023/02/08 11:49:52;;;;;;;;;;;;;;;0.46;52.64;102173.69;6156024;23;19912;-83
2023/02/08 11:52:51;;;;;;;;;;;;;;;0.38;52.51;102173.16;6140608;23;19988;-83
2023/02/08 11:55:17;;;;;;;;;;;;;;;0.45;52.75;102174.47;6109566;23;19912;-82
2023/02/08 11:58:22;;;;;;;;;;;;;;;;;;;;;
2023/02/08 12:01:20;;;;;;;;;;;;;;;0.80;51.89;102152.94;6161964;23;19988;-84
2023/02/08 12:03:49;;;;;;;;;;;;;;;0.89;52.31;102156.16;6138839;23;19916;-82
2023/02/08 12:06:39;;;;;;;;;;;;;;;1.02;51.60;102147.63;6119780;23;19920;-84
2023/02/08 12:09:26;;;;;;;;;;;;;;;1.07;52.38;102150.50;6138577;23;19927;-82
2023/02/08 12:11:58;;;;;;;;;;;;;;;1.26;51.97;102141.44;6143478;23;19913;-81
2023/02/08 12:14:27;;;;;;;;;;;;;;;1.40;51.90;102137.25;6143126;23;19912;-81
2023/02/08 12:17:02;;;;;;;;;;;;;;;1.46;52.21;102133.41;6121523;23;19936;-81
2023/02/08 12:19:57;;;;;;;;;;;;;;;1.56;51.77;102128.88;6099366;23;20228;-83
2023/02/08 12:22:28;;;;;;;;;;;;;;;1.75;51.87;102119.00;6141133;23;19935;-83
2023/02/08 12:25:01;;;;;;;;;;;;;;;1.89;50.83;102119.91;6132804;23;19923;-83
2023/02/08 12:27:48;;;;;;;;;;;;;;;1.96;51.27;102121.16;6132737;23;20009;-85
2023/02/08 12:30:20;;;;;;;;;;;;;;;2.13;51.16;102118.75;6133750;23;19912;-82
2023/02/08 12:32:56;;;;;;;;;;;;;;;2.19;50.52;102119.16;6131298;23;19913;-83
2023/02/08 12:35:30;;;;;;;;;;;;;;;2.22;50.54;102114.22;6130220;23;19916;-84
2023/02/08 12:40:56;;;;;;;;;;;;;;;2.29;50.53;102111.25;6130468;23;19913;-81
2023/02/08 12:43:31;;;;;;;;;;;;;;;2.33;50.56;102107.16;6128360;23;19913;-83
2023/02/08 12:46:09;;;;;;;;;;;;;;;2.38;50.45;102096.38;6103797;23;19975;-82
2023/02/08 12:48:42;;;;;;;;;;;;;;;2.39;50.85;102098.16;6129738;23;19913;-82
2023/02/08 12:51:27;;;;;;;;;;;;;;;2.09;49.38;102085.22;6104390;23;19939;-82
2023/02/08 12:53:58;;;;;;;;;;;;;;;1.78;50.02;102090.97;6103478;23;19921;-84
2023/02/08 12:56:27;;;;;;;;;;;;;;;1.60;50.34;102084.66;6126157;23;19939;-84
2023/02/08 12:58:54;;;;;;;;;;;;;;;1.50;50.21;102084.06;6108913;23;19916;-83
2023/02/08 13:01:22;;;;;;;;;;;;;;;1.43;50.34;102081.91;6105861;23;20294;-83
2023/02/08 13:03:57;;;;;;;;;;;;;;;1.44;50.77;102082.78;6156750;23;19913;-82
2023/02/08 13:06:42;;;;;;;;;;;;;;;1.39;50.11;102085.06;6157690;23;19996;-83
2023/02/08 13:09:31;;;;;;;;;;;;;;;1.32;50.74;102080.31;6107301;23;19912;-84
2023/02/08 13:12:33;;;;;;;;;;;;;;;1.15;50.67;102090.34;6156135;23;19912;-85
2023/02/08 13:15:04;;;;;;;;;;;;;;;1.01;50.87;102075.69;6080709;23;20290;-85
2023/02/08 13:17:56;;;;;;;;;;;;;;;0.92;50.82;102070.84;6136618;23;19924;-81